createdAt,value
2019-04-24T00:29:55.736Z,6.40
2019-04-24T00:32:39.419Z,5.83
2019-04-24T00:35:30.183Z,6.47
2019-04-24T00:38:14.300Z,5.87
2019-04-24T00:41:06.431Z,5.70
2019-04-24T00:46:32.616Z,6.20
2019-04-24T00:49:04.142Z,5.80
2019-04-24T00:51:44.640Z,6.37
2019-04-24T00:57:06.917Z,5.47
2019-04-24T00:59:41.002Z,5.70
2019-04-24T01:08:54.383Z,6.07
2019-04-24T01:11:35.570Z,5.90
2019-04-24T01:14:27.855Z,5.60
2019-04-24T01:17:14.430Z,5.97
2019-04-24T01:20:02.391Z,5.53
2019-04-24T01:22:53.954Z,6.20
2019-04-24T01:25:25.015Z,6.27
2019-04-24T01:28:04.154Z,5.57
2019-04-24T01:40:06.518Z,5.50
2019-04-24T01:46:01.774Z,6.00
2019-04-24T01:49:00.711Z,5.80
2019-04-24T01:54:12.707Z,5.97
2019-04-24T01:56:59.421Z,5.50
2019-04-24T01:59:37.719Z,6.43
2019-04-24T02:02:28.806Z,5.80
2019-04-24T02:11:25.027Z,6.37
2019-04-24T02:13:49.003Z,6.87
2019-04-24T02:16:36.012Z,6.20
2019-04-24T02:19:18.796Z,6.03
2019-04-24T02:22:11.487Z,6.50
2019-04-24T02:24:58.704Z,6.90
2019-04-24T02:30:33.150Z,6.47
2019-04-24T02:33:35.244Z,6.67
2019-04-24T02:42:42.709Z,5.80
2019-04-24T02:45:45.913Z,6.20
2019-04-24T02:51:09.527Z,6.57
2019-04-24T02:56:36.087Z,8.03
2019-04-24T02:59:20.378Z,6.63
2019-04-24T03:02:11.799Z,7.10
2019-04-24T03:10:31.108Z,7.80
2019-04-24T03:19:11.490Z,8.07
2019-04-24T03:21:56.646Z,7.47
2019-04-24T03:24:26.560Z,7.90
2019-04-24T03:33:27.788Z,6.60
2019-04-24T03:38:50.326Z,6.60
2019-04-24T03:44:43.033Z,7.73
2019-04-24T03:46:54.454Z,7.80
2019-04-24T03:52:36.359Z,8.67
2019-04-24T03:55:48.589Z,7.70
2019-04-24T03:58:40.134Z,8.30
2019-04-24T04:01:27.154Z,8.40
2019-04-24T04:04:18.879Z,7.67
2019-04-24T04:12:26.046Z,8.30
2019-04-24T04:15:02.414Z,8.97
2019-04-24T04:18:03.581Z,8.63
2019-04-24T04:29:32.088Z,8.03
2019-04-24T04:35:26.501Z,9.33
2019-04-24T04:38:10.137Z,8.00
2019-04-24T05:05:26.922Z,8.27
2019-04-24T05:08:13.324Z,7.80
2019-04-24T05:10:55.508Z,7.67
2019-04-24T05:13:21.999Z,8.30
2019-04-24T05:21:42.412Z,6.83
2019-04-24T05:27:16.799Z,6.90
2019-04-24T05:36:19.733Z,9.60
2019-04-24T05:44:41.048Z,9.80
2019-04-24T05:51:13.377Z,8.50
2019-04-24T05:54:12.406Z,8.60
2019-04-24T06:00:27.788Z,7.57
2019-04-24T06:03:31.203Z,8.63
2019-04-24T06:06:57.238Z,8.60
2019-04-24T06:09:38.682Z,8.87
2019-04-24T06:13:04.544Z,8.03
2019-04-24T06:15:59.086Z,8.07
2019-04-24T06:19:03.152Z,7.83
2019-04-24T06:22:03.386Z,7.43
2019-04-24T06:24:37.748Z,6.90
2019-04-24T06:30:29.230Z,7.67
2019-04-24T06:33:01.031Z,7.20
2019-04-24T06:35:54.374Z,7.53
2019-04-24T06:38:37.515Z,7.63
2019-04-24T06:44:01.981Z,6.53
2019-04-24T06:47:20.855Z,6.80
2019-04-24T06:49:15.421Z,6.60
2019-04-24T06:57:59.062Z,6.27
2019-04-24T07:07:27.604Z,5.90
2019-04-24T07:10:41.350Z,6.40
2019-04-24T07:19:27.895Z,6.23
2019-04-24T07:22:19.515Z,7.07
2019-04-24T07:25:34.624Z,6.93
2019-04-24T07:34:59.539Z,5.83
2019-04-24T07:37:52.662Z,6.13
2019-04-24T07:40:31.758Z,6.07
2019-04-24T07:46:21.557Z,5.90
2019-04-24T07:52:11.206Z,5.80
2019-04-24T07:57:40.230Z,6.70
2019-04-24T08:00:40.497Z,8.77
2019-04-24T08:06:04.477Z,7.47
2019-04-24T08:08:59.727Z,6.23
2019-04-24T08:11:35.797Z,6.20
2019-04-24T08:14:35.103Z,5.93
2019-04-24T08:17:00.139Z,6.23
2019-04-24T08:22:35.366Z,5.83
2019-04-24T08:27:50.156Z,6.80
2019-04-24T08:30:37.067Z,5.30
2019-04-24T08:33:18.369Z,5.53
2019-04-24T08:45:04.022Z,5.93
2019-04-24T08:47:52.692Z,5.63
2019-04-24T08:50:57.489Z,5.53
2019-04-24T08:53:22.291Z,5.57
2019-04-24T08:55:48.514Z,5.20
2019-04-24T08:58:37.954Z,5.57
2019-04-24T09:06:51.895Z,5.50
2019-04-24T09:10:31.337Z,5.50
2019-04-24T09:15:57.874Z,5.40
2019-04-24T09:18:58.670Z,4.73
2019-04-24T09:21:39.443Z,4.83
2019-04-24T09:24:40.279Z,6.17
2019-04-24T09:36:54.698Z,4.77
2019-04-24T09:46:07.814Z,6.07
2019-04-24T09:48:50.795Z,4.87
2019-04-24T09:51:25.464Z,4.63
2019-04-24T09:54:21.058Z,4.40
2019-04-24T09:57:10.376Z,4.00
2019-04-24T09:59:47.706Z,4.60
2019-04-24T10:02:57.632Z,4.83
2019-04-24T10:06:35.805Z,4.27
2019-04-24T10:08:58.011Z,5.03
2019-04-24T10:14:39.943Z,5.00
2019-04-24T10:17:44.522Z,5.03
2019-04-24T10:25:52.278Z,5.80
2019-04-24T10:29:23.415Z,5.17
2019-04-24T10:41:56.736Z,5.20
2019-04-24T10:45:08.588Z,4.90
2019-04-24T10:48:06.522Z,5.40
2019-04-24T10:51:03.735Z,4.80
2019-04-24T10:56:36.491Z,4.73
2019-04-24T10:59:17.268Z,4.90
2019-04-24T11:02:28.027Z,5.10
2019-04-24T11:05:34.435Z,4.97
2019-04-24T11:17:42.377Z,5.00
2019-04-24T11:24:04.553Z,3.90
2019-04-24T11:26:55.339Z,4.97
2019-04-24T11:29:56.054Z,4.30
2019-04-24T11:35:28.919Z,4.37
2019-04-24T11:41:38.522Z,3.90
2019-04-24T11:53:19.522Z,4.33
2019-04-24T11:56:13.912Z,3.60
2019-04-24T12:06:28.012Z,4.10
2019-04-24T12:11:35.481Z,3.47
2019-04-24T12:14:31.107Z,3.10
2019-04-24T12:17:08.003Z,2.97
2019-04-24T12:23:31.045Z,3.50
2019-04-24T12:28:54.055Z,3.10
2019-04-24T12:43:13.520Z,2.93
2019-04-24T12:46:24.973Z,3.37
2019-04-24T12:48:50.869Z,3.00
2019-04-24T12:51:31.864Z,4.23
2019-04-24T13:06:04.261Z,4.23
2019-04-24T13:09:19.410Z,2.67
2019-04-24T13:12:29.116Z,2.67
2019-04-24T13:15:34.836Z,3.43
2019-04-24T13:18:16.440Z,2.80
2019-04-24T13:20:36.863Z,2.60
2019-04-24T13:23:35.959Z,2.73
2019-04-24T13:35:55.702Z,2.30
2019-04-24T13:46:36.399Z,2.87
2019-04-24T13:49:13.858Z,2.90
2019-04-24T13:52:19.287Z,2.20
2019-04-24T13:54:49.302Z,2.37
2019-04-24T13:57:27.444Z,2.40
2019-04-24T14:00:21.077Z,2.50
2019-04-24T14:05:44.093Z,2.40
2019-04-24T14:08:27.756Z,2.20
2019-04-24T14:12:23.776Z,2.40
2019-04-24T14:13:44.514Z,2.20
2019-04-24T14:16:18.908Z,2.93
2019-04-24T14:30:56.418Z,1.97
2019-04-24T14:33:27.973Z,2.43
2019-04-24T14:36:20.199Z,2.30
2019-04-24T14:38:57.776Z,1.73
2019-04-24T14:41:26.561Z,2.20
2019-04-24T14:50:26.305Z,2.43
2019-04-24T14:53:06.984Z,2.40
2019-04-24T15:03:38.065Z,1.60
2019-04-24T15:12:07.350Z,2.00
2019-04-24T15:17:43.896Z,1.70
2019-04-24T15:20:35.757Z,2.00
2019-04-24T15:23:19.106Z,1.40
2019-04-24T15:28:58.066Z,1.93
2019-04-24T15:31:35.764Z,1.73
2019-04-24T15:37:09.834Z,1.90
2019-04-24T15:39:47.631Z,1.83
2019-04-24T15:42:14.508Z,1.37
2019-04-24T15:45:02.024Z,1.50
2019-04-24T15:48:03.485Z,1.90
2019-04-24T15:52:37.086Z,1.37
2019-04-24T15:58:43.123Z,1.43
2019-04-24T16:02:04.536Z,1.00
2019-04-24T16:07:07.082Z,1.40
2019-04-24T16:09:58.806Z,1.03
2019-04-24T16:12:39.176Z,0.90
2019-04-24T16:18:54.204Z,0.80
2019-04-24T16:24:31.151Z,0.80
2019-04-24T16:32:20.492Z,0.93
2019-04-24T16:34:51.944Z,0.90
2019-04-24T16:37:38.232Z,0.67
2019-04-24T16:48:58.310Z,1.43
2019-04-24T16:54:17.193Z,1.17
2019-04-24T16:59:28.927Z,0.67
2019-04-24T17:02:18.665Z,1.03
2019-04-24T17:08:04.190Z,1.00
2019-04-24T17:13:22.271Z,1.40
2019-04-24T17:16:13.349Z,1.83
2019-04-24T17:19:09.361Z,1.03
2019-04-24T17:21:38.378Z,1.23
2019-04-24T17:24:05.815Z,1.50
2019-04-24T17:27:01.111Z,1.30
2019-04-24T17:29:33.624Z,1.20
2019-04-24T17:35:01.605Z,1.20
2019-04-24T17:37:09.646Z,1.10
2019-04-24T17:40:12.626Z,1.43
2019-04-24T17:43:43.695Z,0.77
2019-04-24T17:46:22.981Z,0.93
2019-04-24T17:51:52.854Z,1.10
2019-04-24T17:54:37.314Z,13.47
2019-04-24T17:57:16.809Z,4.27
2019-04-24T17:59:34.405Z,7.93
2019-04-24T18:02:16.904Z,5.50
2019-04-24T18:04:57.246Z,2.80
2019-04-24T18:07:38.903Z,5.13
2019-04-24T18:10:19.563Z,2.30
2019-04-24T18:13:01.270Z,2.47
2019-04-24T18:15:42.941Z,2.90
2019-04-24T18:18:23.485Z,1.70
2019-04-24T18:21:04.696Z,5.83
2019-04-24T18:23:46.431Z,4.93
2019-04-24T18:26:49.212Z,1.10
2019-04-24T18:29:29.645Z,1.70
2019-04-24T18:32:11.789Z,1.17
2019-04-24T18:34:52.134Z,1.00
2019-04-24T18:37:32.497Z,2.67
2019-04-24T18:40:13.980Z,1.37
2019-04-24T18:42:54.270Z,0.97
2019-04-24T18:45:34.370Z,1.30
2019-04-24T18:48:14.956Z,1.00
2019-04-24T18:50:55.214Z,1.20
2019-04-24T18:53:34.888Z,1.80
2019-04-24T18:56:16.013Z,0.90
2019-04-24T18:58:57.049Z,1.90
2019-04-24T19:01:38.222Z,6.20
2019-04-24T19:04:18.811Z,1.70
2019-04-24T19:06:59.205Z,2.43
2019-04-24T19:09:41.983Z,2.77
2019-04-24T19:12:22.261Z,1.00
2019-04-24T19:15:02.619Z,0.80
2019-04-24T19:17:54.268Z,0.80
2019-04-24T19:20:25.629Z,0.60
2019-04-24T19:23:06.996Z,0.70
2019-04-24T19:25:48.670Z,0.60
2019-04-24T19:28:28.749Z,0.60
2019-04-24T19:31:13.382Z,0.60
2019-04-24T19:33:54.085Z,0.90
2019-04-24T19:36:33.511Z,1.00
2019-04-24T19:39:14.277Z,0.50
2019-04-24T19:41:55.246Z,0.60
2019-04-24T19:44:38.569Z,0.83
2019-04-24T19:47:32.624Z,0.70
2019-04-24T19:50:07.454Z,0.60
2019-04-24T19:52:47.082Z,0.50
2019-04-24T19:55:27.318Z,0.60
2019-04-24T19:58:07.494Z,0.70
2019-04-24T20:00:47.494Z,0.90
2019-04-24T20:03:27.310Z,0.80
2019-04-24T20:06:08.385Z,0.80
2019-04-24T20:08:48.984Z,0.83
2019-04-24T20:14:47.160Z,0.70
2019-04-24T20:17:27.057Z,0.73
2019-04-24T20:20:07.413Z,0.73
2019-04-24T20:22:47.435Z,0.70
2019-04-24T20:25:28.076Z,0.80
2019-04-24T20:28:07.773Z,0.80
2019-04-24T20:30:48.265Z,0.80
2019-04-24T20:33:28.377Z,0.70
2019-04-24T20:36:08.641Z,0.60
2019-04-24T20:38:48.689Z,0.50
2019-04-24T20:41:28.518Z,0.60
2019-04-24T20:44:08.942Z,0.70
2019-04-24T20:46:49.133Z,0.60
2019-04-24T20:49:28.838Z,0.70
2019-04-24T20:52:09.257Z,0.70
2019-04-24T20:54:50.467Z,1.00
2019-04-24T20:57:30.213Z,0.50
2019-04-24T21:00:12.478Z,0.90
2019-04-24T21:02:52.889Z,0.80
2019-04-24T21:05:55.577Z,0.73
2019-04-24T21:12:03.538Z,0.50
2019-04-24T21:14:45.769Z,0.80
2019-04-24T21:17:25.670Z,0.60
2019-04-24T21:20:05.842Z,0.67
2019-04-24T21:22:33.413Z,0.70
2019-04-24T21:25:23.095Z,0.83
2019-04-24T21:28:25.274Z,0.67
2019-04-24T21:31:05.279Z,0.70
2019-04-24T21:33:45.239Z,0.80
2019-04-24T21:36:26.117Z,0.63
2019-04-24T21:39:07.701Z,0.60
2019-04-24T21:41:48.474Z,0.80
2019-04-24T21:44:28.753Z,0.60
2019-04-24T21:47:08.868Z,0.60
2019-04-24T21:49:49.093Z,0.77
2019-04-24T21:52:29.137Z,1.00
2019-04-24T21:55:09.122Z,0.80
2019-04-24T21:58:08.811Z,0.60
2019-04-24T22:01:07.869Z,0.80
2019-04-24T22:07:28.469Z,0.90
2019-04-24T22:10:09.841Z,0.73
2019-04-24T22:12:52.634Z,0.70
2019-04-24T22:15:33.753Z,0.60
2019-04-24T22:18:14.745Z,0.60
2019-04-24T22:20:57.128Z,0.73
2019-04-24T22:23:57.178Z,0.90
2019-04-24T22:26:37.873Z,0.60
2019-04-24T22:29:18.113Z,0.60
2019-04-24T22:32:17.562Z,0.70
2019-04-24T22:34:59.865Z,0.70
2019-04-24T22:37:40.366Z,0.90
2019-04-24T22:40:24.937Z,0.90
2019-04-24T22:43:07.014Z,0.90
2019-04-24T22:45:47.178Z,0.87
2019-04-24T22:48:28.835Z,0.70
2019-04-24T22:51:08.630Z,0.93
2019-04-24T22:53:48.730Z,0.90
2019-04-24T22:56:40.830Z,0.70
2019-04-24T22:59:12.312Z,0.80
2019-04-24T23:01:59.703Z,1.00
2019-04-24T23:04:36.014Z,0.90
2019-04-24T23:07:16.137Z,0.80
2019-04-24T23:09:56.086Z,0.87
2019-04-24T23:12:36.645Z,0.90
2019-04-24T23:15:17.590Z,0.87
2019-04-24T23:17:57.481Z,0.93
2019-04-24T23:20:57.001Z,0.80
2019-04-24T23:27:18.614Z,0.60
2019-04-24T23:36:17.581Z,1.27
2019-04-24T23:38:59.328Z,0.80
2019-04-24T23:41:40.359Z,1.37
2019-04-24T23:44:22.197Z,0.93
2019-04-24T23:47:02.617Z,1.30
2019-04-24T23:49:43.274Z,0.80
2019-04-24T23:52:24.133Z,0.70
2019-04-24T23:55:08.785Z,1.13
2019-04-24T23:57:49.882Z,0.80
